• Join FlightAware (Why Join?)
  • Login
  • US Flag 
08:33AM EDT


 

Airport Tracker/Info


-or-


 

Live Flight TrackerFlight Track Log ✈ SKQ78 ✈ 13-Jul-2013 ✈ KBUY - KCRW

Flight Track Log - Related Links

Times and Time Zones

All times are in EDT time to prevent confusion due to time zone crossing. See the SKQ78 flight status page for this flight to view local times or setup timezone preferences in your user account.

Time Position Orientation Groundspeed Altitude Reporting Facility
EDT Latitude Longitude Course Direction KTS MPH feet Rate Location/Type
04:59AM 36.3010 -79.6984 325° Northwest  Level FlightAware Approximate
05:00AM 36.3548 -79.7445 325° Northwest  Level FlightAware Approximate
05:01AM 36.4086 -79.7907 325° Northwest  Level FlightAware Approximate
05:01AM 36.4644 -79.8144 325° Northwest 241 277 10,000  Level Indianapolis Center
05:02AM 36.4624 -79.8369 325° Northwest  Level FlightAware Approximate
05:02AM 36.5339 -79.8761 324° Northwest 261 300 10,000  Level Indianapolis Center
05:03AM 36.5162 -79.8832 325° Northwest  Level FlightAware Approximate
05:03AM 36.5906 -79.9269 324° Northwest 260 299 10,000  Level Indianapolis Center
05:04AM 36.5699 -79.9296 325° Northwest  Level FlightAware Approximate
05:04AM 36.6469 -79.9781 324° Northwest 259 298 10,000  Level Indianapolis Center
05:05AM 36.6236 -79.9760 325° Northwest  Level FlightAware Approximate
05:05AM 36.7033 -80.0289 324° Northwest 257 296 10,000  Level Indianapolis Center
05:06AM 36.6773 -80.0225 325° Northwest  Level FlightAware Approximate
05:06AM 36.7594 -80.0800 324° Northwest 257 296 10,000  Level Indianapolis Center
05:07AM 36.7310 -80.0691 325° Northwest  Level FlightAware Approximate
05:07AM 36.8158 -80.1311 324° Northwest 257 296 10,000  Level Indianapolis Center
05:08AM 36.8825 -80.1928 324° Northwest 255 293 10,000  Level Indianapolis Center
05:09AM 36.9392 -80.2444 324° Northwest 258 297 10,000  Level Indianapolis Center
05:10AM 36.9700 -80.2739 323° Northwest 261 300 10,000  Level Washington Center
05:11AM 37.0261 -80.3294 322° Northwest 254 292 10,000  Level Washington Center
05:12AM 37.0825 -80.3825 323° Northwest 254 292 10,000  Level Washington Center
05:13AM 37.1389 -80.4328 325° Northwest 259 298 10,000  Level Washington Center
05:14AM 37.1911 -80.4803 324° Northwest 259 298 10,000  Level Washington Center
05:15AM 37.2475 -80.5311 324° Northwest 259 298 10,000  Level Washington Center
05:16AM 37.3036 -80.5869 322° Northwest 259 298 10,000  Level Washington Center
05:17AM 37.3600 -80.6375 325° Northwest 259 298 10,000  Level Washington Center
05:18AM 37.3936 -80.6639 328° Northwest 255 293 10,000  Level Indianapolis Center
05:18AM 37.4497 -80.7150 324° Northwest 254 292 10,000  Level Indianapolis Center
05:20AM 37.5064 -80.7678 324° Northwest 257 296 10,000  Level Indianapolis Center
05:21AM 37.5622 -80.8211 323° Northwest 258 297 10,000  Level Indianapolis Center
05:22AM 37.6289 -80.8828 324° Northwest 256 295 10,000  Level Indianapolis Center
05:23AM 37.6831 -80.9344 323° Northwest 251 289 10,000  Level Indianapolis Center
05:24AM 37.7408 -80.9872 324° Northwest 257 296 10,000  Level Indianapolis Center
05:25AM 37.7956 -81.0400 323° Northwest 256 295 10,000 -60 Level Indianapolis Center
05:26AM 37.8572 -81.0967 324° Northwest 256 295 9,900 -360 Descending Indianapolis Center
05:27AM 37.9158 -81.1519 323° Northwest 260 299 9,400 -720 Descending Indianapolis Center
05:28AM 37.9819 -81.1950 333° Northwest 271 312 8,500 -960 Descending Indianapolis Center
05:29AM 38.0578 -81.2097 351° North 274 315 7,500 -1,020 Descending Indianapolis Center
05:30AM 38.1308 -81.2278 349° North 270 311 6,500 -780 Descending Indianapolis Center
05:31AM 38.2022 -81.2461 349° North 264 304 6,000 -360 Descending Indianapolis Center
05:32AM 38.2672 -81.2636 348° North 239 275 5,800 -600 Descending Indianapolis Center
05:33AM 38.3353 -81.2831 347° North 250 288 4,900 -900 Descending Indianapolis Center
05:34AM 38.4061 -81.3017 348° North 258 297 4,000 -480 Descending Indianapolis Center
05:35AM 38.4683 -81.3375 336° Northwest 265 305 4,000 -360 Level Indianapolis Center
05:36AM 38.5008 -81.4147 298° West 258 297 3,300 -720 Descending Indianapolis Center
05:37AM 38.4589 -81.4783 230° Southwest 243 280 2,600 -540 Descending Indianapolis Center
05:38AM 38.4225 -81.5319 229° Southwest 216 249 2,300 -600 Descending Indianapolis Center
05:39AM 38.4017 -81.5597 226° Southwest 161 185 1,400 -540 Descending Indianapolis Center
05:40AM 38.3769 -81.5936 227° Southwest 154 177 1,300 -120 Descending Indianapolis Center